Latest Weather Observations for Albion Park

IDN60801

Issued at 9:04 am EST Tuesday 3 May 2016 (issued every 30 minutes, with the page automatically refreshed every 10 minutes)

About weather observations | Map of weather stations | Latest weather observations for NSW | Other Formats
Station Details ID: 068241 Name: WOLLONGONG AIRPORT Lat: -34.56 Lon: 150.79 Height: 8.0 m
Data from the previous 72 hours. | See also: Recent months at Albion Park
Date/Time
EST
Temp
°C
App
Temp
°C
Dew
Point
Rel
Hum
%
Delta-T
°C
Wind Press
QNH
hPa
Press
MSL
hPa
Rain
since 9 am
mm
Dir
 
Spd
km/h
Gust
km/h
Spd
kts
Gust
kts
03/09:00am 19.4 15.8 6.8 44 6.3 NNW 15 32 8 17 1011.2 1011.2 0.0
03/08:30am 18.5 14.6 7.3 48 5.7 WNW 17 30 9 16 1011.4 1011.4 0.0
03/08:00am 17.2 14.8 7.0 51 5.1 NNW 9 13 5 7 1011.3 1011.3 0.0
03/07:30am 14.9 12.7 7.7 62 3.6 NNW 9 15 5 8 1011.5 1011.5 0.0
03/07:00am 10.6 8.7 6.7 77 1.8 ENE 6 13 3 7 1011.4 1011.4 0.0
03/06:30am 8.4 6.4 6.2 86 1.0 SSW 6 11 3 6 1011.2 1011.2 0.0
03/06:00am 9.2 6.7 6.5 83 1.3 SSW 9 13 5 7 1011.2 1011.2 0.0
03/05:30am 9.4 7.1 5.9 79 1.6 SSW 7 11 4 6 1010.9 1010.9 0.0
03/05:18am 9.3 7.1 5.1 75 1.9 ESE 6 15 3 8 1010.8 1010.8 0.0
03/05:00am 14.5 11.2 6.3 58 3.9 N 13 17 7 9 1010.7 1010.7 0.0
03/04:30am 14.8 11.8 6.1 56 4.2 NNW 11 24 6 13 1011.0 1011.0 0.0
03/04:00am 14.2 10.9 6.3 59 3.8 NW 13 20 7 11 1010.9 1010.9 0.0
03/03:30am 11.0 8.3 5.7 70 2.4 W 9 15 5 8 1010.9 1010.9 0.0
03/03:00am 9.8 7.7 5.8 76 1.8 SSW 6 13 3 7 1011.0 1011.0 0.0
03/02:30am 11.9 8.7 5.1 63 3.1 WNW 11 22 6 12 1011.3 1011.3 0.0
03/02:00am 14.4 10.6 7.5 63 3.4 NW 17 33 9 18 1011.7 1011.7 0.0
03/01:51am 13.0 9.4 8.3 73 2.3 WNW 17 24 9 13 1012.0 1012.0 0.0
03/01:30am 7.6 5.6 6.2 91 0.6 WNW 6 9 3 5 1012.4 1012.4 0.0
03/01:00am 8.4 5.9 6.4 87 0.9 WNW 9 17 5 9 1012.7 1012.7 0.0
03/12:30am 9.1 5.8 6.5 84 1.2 WSW 13 19 7 10 1013.2 1013.2 0.0
03/12:00am 8.5 5.2 6.3 86 1.0 WSW 13 17 7 9 1013.7 1013.7 0.0
 
Date/Time
EST
Temp
°C
App
Temp
°C
Dew
Point
Rel
Hum
%
Delta-T
°C
Wind Press
QNH
hPa
Press
MSL
hPa
Rain
since 9 am
mm
Dir
 
Spd
km/h
Gust
km/h
Spd
kts
Gust
kts
02/11:30pm 8.8 6.0 6.9 88 0.9 SW 11 17 6 9 1013.9 1013.9 0.0
02/11:00pm 8.9 7.8 6.7 86 1.0 S 2 6 1 3 1014.3 1014.3 0.0
02/10:30pm 9.1 6.9 6.0 81 1.4 W 7 13 4 7 1014.3 1014.3 0.0
02/10:00pm 10.3 8.3 6.3 76 1.9 W 6 19 3 10 1014.5 1014.5 0.0
02/09:30pm 10.7 9.2 6.6 76 1.9 SW 4 9 2 5 1014.4 1014.4 0.0
02/09:00pm 11.2 10.1 6.7 74 2.1 SW 2 9 1 5 1014.5 1014.5 0.0
02/08:30pm 12.9 11.8 6.9 67 2.9 N 2 9 1 5 1013.7 1013.7 0.0
02/08:00pm 13.7 10.6 7.2 65 3.2 WNW 13 17 7 9 1013.7 1013.7 0.0
02/07:30pm 14.0 12.4 8.6 70 2.7 W 7 9 4 5 1013.8 1013.8 0.0
02/07:00pm 14.1 12.4 9.9 76 2.2 WSW 9 17 5 9 1013.4 1013.4 0.0
02/06:30pm 13.6 12.1 10.4 81 1.7 W 9 17 5 9 1013.1 1013.1 0.0
02/06:00pm 14.4 12.6 10.8 79 1.9 SW 11 13 6 7 1012.4 1012.4 0.0
02/05:30pm 15.8 14.8 11.0 73 2.6 SW 7 11 4 6 1012.2 1012.2 0.0
02/05:00pm 17.2 16.3 11.2 68 3.2 SSW 7 11 4 6 1012.0 1012.0 0.0
02/04:30pm 18.0 16.7 11.3 65 3.6 S 9 11 5 6 1012.1 1012.1 0.0
02/04:00pm 18.7 16.9 10.8 60 4.3 S 11 15 6 8 1012.0 1012.0 0.0
02/03:30pm 19.6 18.4 10.3 55 5.0 SE 7 9 4 5 1012.2 1012.2 0.0
02/03:00pm 19.9 17.8 9.8 52 5.4 E 11 13 6 7 1012.2 1012.2 0.0
02/02:30pm 19.9 17.4 9.8 52 5.4 NE 13 17 7 9 1012.1 1012.1 0.0
02/02:00pm 20.5 17.5 9.4 49 5.9 NE 15 19 8 10 1011.9 1011.9 0.0
02/01:30pm 20.8 17.7 8.8 46 6.3 ENE 15 20 8 11 1011.9 1011.9 0.0
02/01:00pm 21.8 19.5 5.7 35 8.1 SW 7 13 4 7 1013.2 1013.2 0.0
02/12:30pm 20.8 17.7 7.1 41 7.0 E 13 17 7 9 1012.8 1012.8 0.0
02/12:00pm 20.7 17.4 6.6 40 7.1 ENE 13 17 7 9 1013.3 1013.3 0.0
02/11:30am 19.6 15.8 6.0 41 6.7 ENE 15 20 8 11 1014.2 1014.2 0.0
02/11:00am 19.6 17.4 5.3 39 7.0 NNE 6 11 3 6 1014.7 1014.7 0.0
02/10:30am 19.3 16.0 4.6 38 7.1 NNW 11 15 6 8 1015.3 1015.3 0.0
02/10:00am 18.5 15.3 5.0 41 6.5 WNW 11 17 6 9 1015.7 1015.7 0.0
02/09:30am 18.1 15.8 5.7 44 6.0 SW 7 22 4 12 1016.3 1016.3 0.0
02/09:00am 17.0 14.5 5.0 45 5.7 NW 7 13 4 7 1016.7 1016.7 0.2
02/08:30am 16.4 14.2 5.4 48 5.3 NW 6 11 3 6 1016.9 1016.9 0.2
02/08:00am 15.1 12.5 5.9 54 4.4 NNW 9 13 5 7 1016.8 1016.8 0.2
02/07:30am 13.4 11.7 6.0 61 3.5 S 4 9 2 5 1016.8 1016.8 0.2
02/07:00am 12.9 10.6 4.8 58 3.7 WSW 6 9 3 5 1016.6 1016.6 0.2
02/06:30am 13.5 10.6 4.4 54 4.2 W 9 13 5 7 1016.6 1016.6 0.2
02/06:00am 13.6 10.3 4.7 55 4.1 NE 11 15 6 8 1016.3 1016.3 0.2
02/05:30am 13.7 10.7 4.3 53 4.3 WNW 9 17 5 9 1015.8 1015.8 0.2
02/05:00am 14.2 7.7 4.5 52 4.5 WSW 28 41 15 22 1015.6 1015.6 0.2
02/04:30am 14.4 8.7 5.0 53 4.4 W 24 33 13 18 1014.9 1014.9 0.2
02/04:00am 14.5 9.3 5.3 54 4.3 W 22 32 12 17 1015.0 1015.0 0.2
02/03:30am 14.3 9.1 5.7 56 4.1 WNW 22 32 12 17 1014.7 1014.7 0.2
02/03:00am 14.0 9.8 5.6 57 4.0 W 17 20 9 11 1015.0 1015.0 0.2
02/02:30am 14.2 9.4 5.8 57 4.0 W 20 30 11 16 1015.1 1015.1 0.2
02/02:00am 14.4 11.4 6.0 57 4.0 WSW 11 20 6 11 1015.5 1015.5 0.2
02/01:30am 12.9 10.0 6.5 65 3.1 W 11 17 6 9 1015.5 1015.5 0.2
02/01:00am 12.7 9.8 6.7 67 2.9 WNW 11 17 6 9 1015.6 1015.6 0.2
02/12:30am 13.9 11.8 6.5 61 3.6 NW 7 11 4 6 1016.1 1016.1 0.2
02/12:00am 15.9 13.0 6.6 54 4.5 NNW 11 17 6 9 1016.1 1016.1 0.2
 
Date/Time
EST
Temp
°C
App
Temp
°C
Dew
Point
Rel
Hum
%
Delta-T
°C
Wind Press
QNH
hPa
Press
MSL
hPa
Rain
since 9 am
mm
Dir
 
Spd
km/h
Gust
km/h
Spd
kts
Gust
kts
01/11:30pm 14.3 11.9 6.9 61 3.6 WNW 9 17 5 9 1016.1 1016.1 0.2
01/11:00pm 14.1 12.2 6.9 62 3.5 SW 6 7 3 4 1016.2 1016.2 0.2
01/10:30pm 15.2 11.7 7.3 59 3.9 W 15 20 8 11 1016.0 1016.0 0.2
01/10:00pm 15.5 12.5 7.8 60 3.8 W 13 17 7 9 1015.9 1015.9 0.2
01/09:30pm 14.0 12.6 7.3 64 3.3 W 4 7 2 4 1015.7 1015.7 0.2
01/09:00pm 15.6 13.5 6.6 55 4.4 W 7 11 4 6 1015.2 1015.2 0.2
01/08:30pm 17.7 13.8 7.2 50 5.3 W 17 20 9 11 1014.6 1014.6 0.2
01/08:00pm 18.4 14.5 7.2 48 5.6 W 17 24 9 13 1014.3 1014.3 0.2
01/07:30pm 18.9 15.3 8.3 50 5.5 W 17 26 9 14 1013.7 1013.7 0.2
01/07:00pm 19.9 15.9 8.9 49 5.8 W 20 33 11 18 1013.1 1013.1 0.2
01/06:46pm 20.8 15.1 8.4 45 6.5 W 28 48 15 26 1012.7 1012.7 0.2
01/06:30pm 20.3 16.3 8.9 48 6.0 WSW 20 28 11 15 1012.4 1012.4 0.2
01/06:00pm 20.5 17.6 8.2 45 6.4 WSW 13 24 7 13 1011.7 1011.7 0.2
01/05:30pm 22.9 16.5 7.1 36 8.2 WNW 30 52 16 28 1010.9 1010.9 0.2
01/05:07pm 23.9 16.8 6.2 32 9.1 WNW 33 52 18 28 1010.2 1010.2 0.2
01/05:00pm 24.1 16.2 6.4 32 9.1 W 37 54 20 29 1010.1 1010.1 0.2
01/04:31pm 25.1 17.3 6.8 31 9.5 WNW 37 57 20 31 1009.6 1009.6 0.2
01/04:30pm 25.2 17.0 6.4 30 9.7 WNW 39 57 21 31 1009.6 1009.6 0.2
01/04:10pm 25.5 19.6 7.6 32 9.5 WNW 28 56 15 30 1009.2 1009.2 0.2
01/04:00pm 26.1 21.2 8.6 33 9.5 WNW 24 33 13 18 1009.2 1009.2 0.2
01/03:41pm 26.3 20.6 8.3 32 9.7 W 28 50 15 27 1008.9 1008.9 0.2
01/03:30pm 26.8 23.0 9.2 33 9.7 WNW 19 39 10 21 1008.7 1008.7 0.2
01/03:00pm 27.1 21.7 10.8 36 9.2 NW 30 41 16 22 1008.4 1008.4 0.2
01/02:30pm 27.1 21.9 11.6 38 8.9 NW 30 50 16 27 1008.4 1008.4 0.2
01/02:03pm 27.5 23.3 13.4 41 8.3 WNW 28 46 15 25 1008.5 1008.5 0.2
01/02:00pm 27.5 22.5 13.4 41 8.3 WNW 32 46 17 25 1008.4 1008.4 0.2
01/01:30pm 27.3 21.7 13.3 42 8.2 WNW 35 57 19 31 1008.4 1008.4 0.2
01/01:24pm 27.5 22.8 13.1 41 8.5 NW 30 57 16 31 1008.4 1008.4 0.2
01/01:00pm 25.7 24.2 16.8 58 5.5 N 20 28 11 15 1008.9 1008.9 0.2
01/12:30pm 24.4 23.8 17.6 66 4.2 NE 17 26 9 14 1009.0 1009.0 0.0
01/12:00pm 22.7 21.3 16.5 68 3.8 NE 19 28 10 15 1009.8 1009.8 0.0
01/11:30am 22.3 20.8 16.3 69 3.6 NE 19 28 10 15 1010.2 1010.2 0.0
01/11:00am 21.9 20.9 16.6 72 3.2 NE 17 26 9 14 1010.9 1010.9 0.0
01/10:30am 21.3 20.7 16.7 75 2.8 NE 15 20 8 11 1011.4 1011.4 0.0
01/10:00am 21.0 20.8 16.6 76 2.7 NE 13 17 7 9 1011.7 1011.7 0.0
01/09:30am 20.9 19.8 16.3 75 2.8 NNE 17 24 9 13 1011.6 1011.6 0.0
01/09:00am 20.6 19.6 16.6 78 2.4 NNE 17 22 9 12 1011.7 1011.7 0.2
01/08:30am 20.9 18.7 15.9 73 3.0 NNE 22 30 12 16 1011.9 1011.9 0.2
01/08:00am 20.5 19.3 17.1 81 2.1 NE 19 30 10 16 1011.8 1011.8 0.2
01/07:30am 18.5 19.2 17.0 91 0.9 ENE 9 13 5 7 1011.7 1011.7 0.2
01/07:00am 18.6 18.8 16.8 89 1.1 ENE 11 15 6 8 1012.1 1012.1 0.2
01/06:30am 17.5 18.2 16.2 92 0.8 ESE 7 11 4 6 1012.3 1012.3 0.2
01/06:00am 17.8 18.6 16.3 91 0.9 E 7 11 4 6 1011.6 1011.6 0.0
01/05:30am 15.8 16.5 15.6 99 0.1 WNW 6 11 3 6 1011.9 1011.9 0.0
01/05:00am 14.6 15.3 14.4 99 0.1 WSW 4 11 2 6 1012.3 1012.3 0.0
01/04:30am 13.7 14.8 13.5 99 0.1 CALM 0 0 0 0 1012.0 1012.0 0.0
01/04:00am 13.6 14.7 13.4 99 0.1 CALM 0 6 0 3 1012.1 1012.1 0.0
01/03:30am 13.6 14.7 13.4 99 0.1 CALM 0 6 0 3 1012.5 1012.5 0.0
01/03:00am 12.8 13.6 12.6 99 0.1 CALM 0 4 0 2 1012.4 1012.4 0.0
01/02:30am 12.1 11.9 11.9 99 0.1 WSW 4 11 2 6 1012.4 1012.4 0.0
01/02:00am 12.7 12.7 12.5 99 0.1 WSW 4 7 2 4 1013.2 1013.2 0.0
01/01:30am 13.1 13.6 12.8 98 0.2 WSW 2 7 1 4 1013.2 1013.2 0.0
01/01:00am 13.1 12.3 12.8 98 0.2 WNW 9 15 5 8 1013.5 1013.5 0.0
01/12:30am 14.0 14.8 13.8 99 0.1 WSW 2 7 1 4 1014.2 1014.2 0.0
01/12:00am 13.2 12.7 12.6 96 0.3 W 7 11 4 6 1015.0 1015.0 0.0
 
Date/Time
EST
Temp
°C
App
Temp
°C
Dew
Point
Rel
Hum
%
Delta-T
°C
Wind Press
QNH
hPa
Press
MSL
hPa
Rain
since 9 am
mm
Dir
 
Spd
km/h
Gust
km/h
Spd
kts
Gust
kts
30/11:30pm 14.0 14.8 13.7 98 0.2 WSW 2 6 1 3 1015.0 1015.0 0.0
30/11:00pm 14.3 14.2 14.0 98 0.2 W 7 9 4 5 1015.3 1015.3 0.0
30/10:30pm 14.2 13.7 13.7 97 0.3 WSW 9 11 5 6 1015.8 1015.8 0.0
30/10:00pm 14.9 15.1 14.6 98 0.2 WSW 7 9 4 5 1016.0 1016.0 0.0
30/09:30pm 15.9 16.9 15.4 97 0.3 WSW 4 7 2 4 1016.0 1016.0 0.0
30/09:00pm 15.6 16.5 15.0 96 0.3 W 4 7 2 4 1016.2 1016.2 0.0
30/08:30pm 15.5 15.9 14.7 95 0.5 W 6 9 3 5 1016.3 1016.3 0.0
30/08:00pm 16.6 18.0 15.3 92 0.8 W 2 6 1 3 1016.2 1016.2 0.0
30/07:30pm 17.6 18.4 15.9 90 1.0 W 6 9 3 5 1015.8 1015.8 0.0
30/07:00pm 17.5 18.8 16.2 92 0.8 WSW 4 9 2 5 1015.7 1015.7 0.0
30/06:30pm 18.2 18.7 16.5 90 1.0 W 9 13 5 7 1015.5 1015.5 0.0
30/06:00pm 20.5 22.0 17.7 84 1.7 SSW 6 7 3 4 1015.3 1015.3 0.0
30/05:30pm 21.6 22.0 18.2 81 2.1 SSE 13 19 7 10 1015.0 1015.0 0.0
30/05:00pm 22.6 23.8 18.2 76 2.8 SE 9 11 5 6 1014.8 1014.8 0.0
30/04:30pm 24.0 25.1 18.9 73 3.2 E 11 13 6 7 1014.8 1014.8 0.0
30/04:00pm 24.3 25.5 19.1 73 3.3 E 11 15 6 8 1014.8 1014.8 0.0
30/03:30pm 24.4 25.6 18.3 69 3.8 ENE 9 11 5 6 1014.8 1014.8 0.0
30/03:00pm 23.9 24.6 18.8 73 3.2 ENE 13 15 7 8 1014.9 1014.9 0.0
30/02:30pm 23.6 23.1 17.8 70 3.6 NE 17 19 9 10 1015.2 1015.2 0.0
30/02:00pm 24.1 24.0 16.9 64 4.4 NE 13 17 7 9 1015.3 1015.3 0.0
30/01:30pm 24.4 25.5 17.9 67 4.1 NNE 9 13 5 7 1015.6 1015.6 0.0
30/01:00pm 24.0 24.8 17.3 66 4.1 NNW 9 13 5 7 1015.6 1015.6 0.0
30/12:30pm 23.3 23.0 17.3 69 3.7 NNW 15 19 8 10 1016.2 1016.2 0.0
30/12:00pm 23.2 23.9 17.0 68 3.8 NNW 9 13 5 7 1016.6 1016.6 0.0
30/11:30am 23.3 23.1 16.6 66 4.1 NNW 13 17 7 9 1017.2 1017.2 0.0
30/11:00am 23.2 24.0 17.2 69 3.7 NW 9 15 5 8 1017.5 1017.5 0.0
30/10:30am 22.3 24.1 18.3 78 2.5 WSW 6 9 3 5 1017.9 1017.9 0.0
30/10:00am 20.8 23.8 18.4 86 1.5 CALM 0 0 0 0 1017.9 1017.9 0.0
30/09:30am 20.3 23.3 18.4 89 1.2 CALM 0 0 0 0 1018.3 1018.3 0.0

Other Formats:

Comma delimited format used in spreadsheet applications
http://www.bom.gov.au/fwo/IDN60801/IDN60801.95748.axf

JavaScript Object Notation format (JSON) in row-major order
http://www.bom.gov.au/fwo/IDN60801/IDN60801.95748.json